createdAt,value
2018-01-06T00:00:32.078Z,6.9
2018-01-06T00:01:31.544Z,6.92
2018-01-06T00:02:31.891Z,6.84
2018-01-06T00:03:31.656Z,6.78
2018-01-06T00:04:31.834Z,6.83
2018-01-06T00:05:32.286Z,6.73
2018-01-06T00:06:31.722Z,6.79
2018-01-06T00:07:32.341Z,6.83
2018-01-06T00:08:31.733Z,6.85
2018-01-06T00:09:32.254Z,6.81
2018-01-06T00:10:31.896Z,6.82
2018-01-06T00:11:31.494Z,6.81
2018-01-06T00:12:31.728Z,6.84
2018-01-06T00:13:32.131Z,6.84
2018-01-06T00:14:31.581Z,6.87
2018-01-06T00:15:31.967Z,6.88
2018-01-06T00:16:31.454Z,6.84
2018-01-06T00:17:31.906Z,6.82
2018-01-06T00:18:32.331Z,6.89
2018-01-06T00:19:31.678Z,6.8
2018-01-06T00:20:32.152Z,6.88
2018-01-06T00:21:31.565Z,6.88
2018-01-06T00:22:31.844Z,6.92
2018-01-06T00:23:32.217Z,6.9
2018-01-06T00:24:31.730Z,6.95
2018-01-06T00:25:32.246Z,6.91
2018-01-06T00:26:31.757Z,6.91
2018-01-06T00:27:32.085Z,6.91
2018-01-06T00:28:31.349Z,6.91
2018-01-06T00:29:31.565Z,6.89
2018-01-06T00:30:31.991Z,6.93
2018-01-06T00:31:32.386Z,6.91
2018-01-06T00:32:31.455Z,6.92
2018-01-06T00:33:31.569Z,6.93
2018-01-06T00:34:30.643Z,6.9
2018-01-06T00:35:30.871Z,6.88
2018-01-06T00:36:31.070Z,6.9
2018-01-06T00:37:31.549Z,6.93
2018-01-06T00:38:30.710Z,6.93
2018-01-06T00:39:30.835Z,6.97
2018-01-06T00:40:30.994Z,7.01
2018-01-06T00:41:31.153Z,6.99
2018-01-06T00:42:31.367Z,7
2018-01-06T00:43:31.933Z,7.03
2018-01-06T00:44:31.149Z,7.02
2018-01-06T00:45:31.587Z,7.02
2018-01-06T00:46:30.971Z,7.03
2018-01-06T00:47:31.233Z,7.08
2018-01-06T00:48:31.681Z,7.05
2018-01-06T00:49:30.952Z,7.07
2018-01-06T00:50:31.064Z,7.07
2018-01-06T00:51:31.283Z,7.03
2018-01-06T00:52:31.497Z,7.04
2018-01-06T00:53:31.701Z,7.01
2018-01-06T00:54:30.884Z,7.02
2018-01-06T00:55:31.057Z,7.01
2018-01-06T00:56:31.262Z,7
2018-01-06T00:57:31.491Z,7.02
2018-01-06T00:58:31.698Z,7
2018-01-06T00:59:31.464Z,7.04
2018-01-06T01:00:31.677Z,6.99
2018-01-06T01:01:30.828Z,6.95
2018-01-06T01:02:31.054Z,6.95
2018-01-06T01:03:31.264Z,6.91
2018-01-06T01:04:31.619Z,6.95
2018-01-06T01:05:30.976Z,6.92
2018-01-06T01:06:31.493Z,6.94
2018-01-06T01:07:30.770Z,6.88
2018-01-06T01:08:31.054Z,6.92
2018-01-06T01:09:31.443Z,6.87
2018-01-06T01:10:30.994Z,6.86
2018-01-06T01:11:31.451Z,6.88
2018-01-06T01:12:30.803Z,6.89
2018-01-06T01:13:30.985Z,6.85
2018-01-06T01:14:31.273Z,6.9
2018-01-06T01:15:31.548Z,6.9
2018-01-06T01:16:30.770Z,6.9
2018-01-06T01:17:31.009Z,6.92
2018-01-06T01:18:31.325Z,6.92
2018-01-06T01:19:31.660Z,6.92
2018-01-06T01:20:30.962Z,6.91
2018-01-06T01:21:31.242Z,6.9
2018-01-06T01:22:31.376Z,6.9
2018-01-06T01:23:30.689Z,6.87
2018-01-06T01:24:30.971Z,6.86
2018-01-06T01:25:31.137Z,6.89
2018-01-06T01:26:31.455Z,6.89
2018-01-06T01:27:30.684Z,6.88
2018-01-06T01:28:30.893Z,6.87
2018-01-06T01:29:31.039Z,6.78
2018-01-06T01:30:31.401Z,6.82
2018-01-06T01:31:30.776Z,6.81
2018-01-06T01:32:31.002Z,6.83
2018-01-06T01:33:31.176Z,6.83
2018-01-06T01:34:31.362Z,6.83
2018-01-06T01:35:31.693Z,6.82
2018-01-06T01:36:30.995Z,6.85
2018-01-06T01:37:31.288Z,6.89
2018-01-06T01:38:31.522Z,6.87
2018-01-06T01:39:30.753Z,6.89
2018-01-06T01:40:31.054Z,6.88
2018-01-06T01:41:31.223Z,6.96
2018-01-06T01:42:31.480Z,6.92
2018-01-06T01:43:30.701Z,6.94
2018-01-06T01:44:31.002Z,6.91
2018-01-06T01:45:31.194Z,6.9
2018-01-06T01:46:31.361Z,6.93
2018-01-06T01:47:30.715Z,6.92
2018-01-06T01:48:30.914Z,6.92
2018-01-06T01:49:31.336Z,6.94
2018-01-06T01:50:30.758Z,6.92
2018-01-06T01:51:31.084Z,6.9
2018-01-06T01:52:31.337Z,6.9
2018-01-06T01:53:30.626Z,6.91
2018-01-06T01:54:30.840Z,6.92
2018-01-06T01:55:31.483Z,6.87
2018-01-06T01:56:30.790Z,6.89
2018-01-06T01:57:31.101Z,6.89
2018-01-06T01:58:31.253Z,6.91
2018-01-06T01:59:31.582Z,6.88
2018-01-06T02:00:30.857Z,6.94
2018-01-06T02:01:31.249Z,6.94
2018-01-06T02:04:30.693Z,6.97
2018-01-06T02:05:30.802Z,7.02
2018-01-06T02:06:31.055Z,6.98
2018-01-06T02:07:31.287Z,6.96
2018-01-06T02:08:31.469Z,6.98
2018-01-06T02:09:31.558Z,6.96
2018-01-06T02:10:31.738Z,6.97
2018-01-06T02:11:31.867Z,7
2018-01-06T02:12:31.143Z,6.97
2018-01-06T02:13:31.528Z,6.99
2018-01-06T02:14:30.974Z,7.02
2018-01-06T02:15:31.235Z,6.98
2018-01-06T02:16:31.520Z,6.95
2018-01-06T02:17:31.769Z,6.96
2018-01-06T02:18:31.045Z,6.98
2018-01-06T02:19:31.354Z,6.99
2018-01-06T02:20:31.486Z,7.06
2018-01-06T02:21:31.592Z,7
2018-01-06T02:22:31.754Z,6.96
2018-01-06T02:23:32.094Z,6.98
2018-01-06T02:24:31.533Z,6.98
2018-01-06T02:25:31.776Z,7.02
2018-01-06T02:26:31.065Z,6.98
2018-01-06T02:27:31.234Z,6.94
2018-01-06T02:28:31.455Z,6.96
2018-01-06T02:29:31.649Z,6.95
2018-01-06T02:30:31.882Z,7.04
2018-01-06T02:31:31.051Z,6.97
2018-01-06T02:32:31.115Z,7.07
2018-01-06T02:33:31.275Z,7.07
2018-01-06T02:34:31.433Z,7.09
2018-01-06T02:35:31.849Z,7.07
2018-01-06T02:36:31.341Z,7.03
2018-01-06T02:37:31.545Z,6.96
2018-01-06T02:38:31.688Z,7.04
2018-01-06T02:39:31.856Z,7.06
2018-01-06T02:40:32.137Z,6.99
2018-01-06T02:41:31.576Z,7.02
2018-01-06T02:42:31.916Z,6.98
2018-01-06T02:43:32.298Z,7
2018-01-06T02:44:31.550Z,7.04
2018-01-06T02:45:31.872Z,7.02
2018-01-06T02:46:31.470Z,6.99
2018-01-06T02:47:31.862Z,7.02
2018-01-06T02:48:32.042Z,7.01
2018-01-06T02:49:32.252Z,6.97
2018-01-06T02:50:31.579Z,7.04
2018-01-06T02:51:31.906Z,7.02
2018-01-06T02:52:32.071Z,7.01
2018-01-06T02:53:31.264Z,7.02
2018-01-06T02:54:31.506Z,7.02
2018-01-06T02:55:31.770Z,7.01
2018-01-06T02:56:32.271Z,6.98
2018-01-06T02:57:31.846Z,6.97
2018-01-06T02:58:32.315Z,6.99
2018-01-06T02:59:31.621Z,6.97
2018-01-06T03:00:31.786Z,6.96
2018-01-06T03:01:31.985Z,6.97
2018-01-06T03:02:31.994Z,6.98
2018-01-06T03:03:32.330Z,7
2018-01-06T03:04:31.659Z,7.05
2018-01-06T03:05:31.794Z,7.02
2018-01-06T03:06:32.197Z,7.01
2018-01-06T03:07:31.437Z,7
2018-01-06T03:08:31.840Z,7
2018-01-06T03:09:32.153Z,6.95
2018-01-06T03:10:31.355Z,6.95
2018-01-06T03:11:31.558Z,6.96
2018-01-06T03:12:31.682Z,6.96
2018-01-06T03:13:31.903Z,6.97
2018-01-06T03:14:31.279Z,6.95
2018-01-06T03:15:31.759Z,6.92
2018-01-06T03:16:32.069Z,6.91
2018-01-06T03:17:31.340Z,6.88
2018-01-06T03:18:31.474Z,6.92
2018-01-06T03:19:31.712Z,6.92
2018-01-06T03:20:31.886Z,6.89
2018-01-06T03:21:32.055Z,6.9
2018-01-06T03:22:31.377Z,6.88
2018-01-06T03:23:31.712Z,6.87
2018-01-06T03:24:31.810Z,6.86
2018-01-06T03:25:32.089Z,6.85
2018-01-06T03:26:31.510Z,6.87
2018-01-06T03:27:31.768Z,6.84
2018-01-06T03:28:32.086Z,6.82
2018-01-06T03:29:31.639Z,6.77
2018-01-06T03:30:32.023Z,6.75
2018-01-06T03:31:31.309Z,6.78
2018-01-06T03:32:31.536Z,6.82
2018-01-06T03:33:31.808Z,6.84
2018-01-06T03:34:32.063Z,6.82
2018-01-06T03:35:31.352Z,6.82
2018-01-06T03:36:31.664Z,6.79
2018-01-06T03:37:32.258Z,6.85
2018-01-06T03:38:31.487Z,6.82
2018-01-06T03:39:31.853Z,6.82
2018-01-06T03:40:31.245Z,6.87
2018-01-06T03:41:31.544Z,6.82
2018-01-06T03:42:31.681Z,6.81
2018-01-06T03:43:31.900Z,6.83
2018-01-06T03:44:31.126Z,6.81
2018-01-06T03:45:31.497Z,6.81
2018-01-06T03:46:31.744Z,6.83
2018-01-06T03:47:31.855Z,6.8
2018-01-06T03:48:30.962Z,6.81
2018-01-06T03:49:31.273Z,6.81
2018-01-06T03:50:31.412Z,6.79
2018-01-06T03:51:31.755Z,6.78
2018-01-06T03:52:31.858Z,6.85
2018-01-06T03:53:30.977Z,6.86
2018-01-06T03:54:31.306Z,6.87
2018-01-06T03:55:31.778Z,6.9
2018-01-06T03:56:31.108Z,6.87
2018-01-06T03:57:31.335Z,6.84
2018-01-06T03:58:31.570Z,6.86
2018-01-06T03:59:31.710Z,6.82
2018-01-06T04:00:31.862Z,6.81
2018-01-06T04:01:31.114Z,6.78
2018-01-06T04:02:31.254Z,6.75
2018-01-06T04:03:31.583Z,6.74
2018-01-06T04:04:30.894Z,6.76
2018-01-06T04:05:31.016Z,6.74
2018-01-06T04:06:31.149Z,6.78
2018-01-06T04:07:31.275Z,6.75
2018-01-06T04:08:31.539Z,6.75
2018-01-06T04:09:30.746Z,6.77
2018-01-06T04:10:30.943Z,6.75
2018-01-06T04:11:31.264Z,6.76
2018-01-06T04:12:30.603Z,6.78
2018-01-06T04:13:30.770Z,6.76
2018-01-06T04:14:30.904Z,6.75
2018-01-06T04:15:31.083Z,6.79
2018-01-06T04:16:31.426Z,6.76
2018-01-06T04:17:30.744Z,6.74
2018-01-06T04:18:30.953Z,6.77
2018-01-06T04:19:31.280Z,6.74
2018-01-06T04:20:30.528Z,6.71
2018-01-06T04:21:30.765Z,6.68
2018-01-06T04:22:30.914Z,6.69
2018-01-06T04:23:31.444Z,6.73
2018-01-06T04:24:30.700Z,6.7
2018-01-06T04:25:30.966Z,6.67
2018-01-06T04:26:31.268Z,6.65
2018-01-06T04:27:30.617Z,6.6
2018-01-06T04:28:30.959Z,6.62
2018-01-06T04:29:31.104Z,6.6
2018-01-06T04:30:31.283Z,6.61
2018-01-06T04:31:30.499Z,6.61
2018-01-06T04:32:30.647Z,6.61
2018-01-06T04:33:30.839Z,6.6
2018-01-06T04:34:31.145Z,6.57
2018-01-06T04:35:31.431Z,6.58
2018-01-06T04:36:30.622Z,6.56
2018-01-06T04:37:30.826Z,6.55
2018-01-06T04:38:31.081Z,6.48
2018-01-06T04:39:31.382Z,6.48
2018-01-06T04:40:30.712Z,6.45
2018-01-06T04:41:30.967Z,6.43
2018-01-06T04:42:31.106Z,6.43
2018-01-06T04:43:31.358Z,6.42
2018-01-06T04:44:30.889Z,6.4
2018-01-06T04:45:31.230Z,6.4
2018-01-06T04:46:31.349Z,6.45
2018-01-06T04:47:30.678Z,6.38
2018-01-06T04:48:31.056Z,6.38
2018-01-06T04:49:31.310Z,6.38
2018-01-06T04:50:30.817Z,6.37
2018-01-06T04:51:31.047Z,6.43
2018-01-06T04:52:31.148Z,6.45
2018-01-06T04:53:31.294Z,6.4
2018-01-06T04:54:30.444Z,6.39
2018-01-06T04:55:30.799Z,6.38
2018-01-06T04:56:30.908Z,6.41
2018-01-06T04:57:31.070Z,6.39
2018-01-06T04:58:31.342Z,6.37
2018-01-06T04:59:30.538Z,6.42
2018-01-06T05:00:30.653Z,6.4
2018-01-06T05:01:30.892Z,6.38
2018-01-06T05:02:31.096Z,6.43
2018-01-06T05:03:31.261Z,6.42
2018-01-06T05:04:30.514Z,6.42
2018-01-06T05:05:30.801Z,6.39
2018-01-06T05:06:31.477Z,6.38
2018-01-06T05:07:30.560Z,6.38
2018-01-06T05:08:30.837Z,6.38
2018-01-06T05:09:31.093Z,6.34
2018-01-06T05:10:31.378Z,6.34
2018-01-06T05:11:31.700Z,6.32
2018-01-06T05:12:31.823Z,6.36
2018-01-06T05:13:31.989Z,6.33
2018-01-06T05:14:31.347Z,6.29
2018-01-06T05:15:31.487Z,6.29
2018-01-06T05:16:31.623Z,6.33
2018-01-06T05:17:32.017Z,6.28
2018-01-06T05:18:32.456Z,6.26
2018-01-06T05:19:31.810Z,6.29
2018-01-06T05:20:32.102Z,6.31
2018-01-06T05:21:31.326Z,6.31
2018-01-06T05:22:31.480Z,6.37
2018-01-06T05:23:31.732Z,6.32
2018-01-06T05:24:31.927Z,6.31
2018-01-06T05:25:32.130Z,6.32
2018-01-06T05:26:31.358Z,6.31
2018-01-06T05:27:31.537Z,6.37
2018-01-06T05:28:31.972Z,6.31
2018-01-06T05:29:32.220Z,6.32
2018-01-06T05:30:31.527Z,6.34
2018-01-06T05:31:31.826Z,6.38
2018-01-06T05:32:31.918Z,6.4
2018-01-06T05:33:32.125Z,6.38
2018-01-06T05:34:31.280Z,6.41
2018-01-06T05:35:31.606Z,6.41
2018-01-06T05:36:31.937Z,6.37
2018-01-06T05:37:32.112Z,6.35
2018-01-06T05:38:32.265Z,6.37
2018-01-06T05:39:31.464Z,6.4
2018-01-06T05:40:31.535Z,6.41
2018-01-06T05:41:30.644Z,6.41
2018-01-06T05:42:30.755Z,6.45
2018-01-06T05:43:30.991Z,6.43
2018-01-06T05:44:31.256Z,6.42
2018-01-06T05:45:31.661Z,6.45
2018-01-06T05:46:30.953Z,6.4
2018-01-06T05:47:31.211Z,6.39
2018-01-06T05:48:31.628Z,6.37
2018-01-06T05:49:31.020Z,6.42
2018-01-06T05:50:31.200Z,6.38
2018-01-06T05:51:31.612Z,6.4
2018-01-06T05:52:30.957Z,6.43
2018-01-06T05:53:31.227Z,6.36
2018-01-06T05:54:31.529Z,6.36
2018-01-06T05:55:30.760Z,6.34
2018-01-06T05:56:31.212Z,6.37
2018-01-06T05:57:31.325Z,6.41
2018-01-06T05:58:31.609Z,6.39
2018-01-06T05:59:30.870Z,6.39
2018-01-06T06:00:31.151Z,6.26
2018-01-06T06:01:30.548Z,6.27
2018-01-06T06:02:30.916Z,6.29
2018-01-06T06:03:31.104Z,6.24
2018-01-06T06:04:31.418Z,6.29
2018-01-06T06:05:30.866Z,6.31
2018-01-06T06:06:31.105Z,6.31
2018-01-06T06:07:31.383Z,6.37
2018-01-06T06:08:30.689Z,6.36
2018-01-06T06:09:30.922Z,6.36
2018-01-06T06:10:30.939Z,6.36
2018-01-06T06:11:31.269Z,6.32
2018-01-06T06:12:31.628Z,6.3
2018-01-06T06:13:32.148Z,6.28
2018-01-06T06:14:31.407Z,6.32
2018-01-06T06:15:31.611Z,6.3
2018-01-06T06:16:31.977Z,6.29
2018-01-06T06:17:31.378Z,6.29
2018-01-06T06:18:31.649Z,6.34
2018-01-06T06:19:31.815Z,6.36
2018-01-06T06:20:32.038Z,6.4
2018-01-06T06:21:31.267Z,6.37
2018-01-06T06:22:31.660Z,6.32
2018-01-06T06:23:31.972Z,6.28
2018-01-06T06:24:31.131Z,6.26
2018-01-06T06:25:31.320Z,6.26
2018-01-06T06:26:31.417Z,6.25
2018-01-06T06:27:31.675Z,6.25
2018-01-06T06:28:31.957Z,6.3
2018-01-06T06:29:31.271Z,6.28
2018-01-06T06:30:31.461Z,6.28
2018-01-06T06:31:31.579Z,6.26
2018-01-06T06:32:31.835Z,6.25
2018-01-06T06:33:31.924Z,6.23
2018-01-06T06:34:31.477Z,6.23
2018-01-06T06:35:32.257Z,6.22
2018-01-06T06:36:31.507Z,6.22
2018-01-06T06:37:31.951Z,6.24
2018-01-06T06:38:31.297Z,6.24
2018-01-06T06:39:31.519Z,6.2
2018-01-06T06:40:31.757Z,6.27
2018-01-06T06:41:31.889Z,6.26
2018-01-06T06:42:30.939Z,6.32
2018-01-06T06:43:31.010Z,6.33
2018-01-06T06:44:31.247Z,6.23
2018-01-06T06:45:31.666Z,6.28
2018-01-06T06:46:30.886Z,6.23
2018-01-06T06:47:30.941Z,6.18
2018-01-06T06:48:30.953Z,6.25
2018-01-06T06:49:31.058Z,6.19
2018-01-06T06:50:31.364Z,6.24
2018-01-06T06:51:31.550Z,6.22
2018-01-06T06:52:31.761Z,6.2
2018-01-06T06:53:30.946Z,6.15
2018-01-06T06:54:31.064Z,6.18
2018-01-06T06:55:31.301Z,6.2
2018-01-06T06:56:32.149Z,6.14
2018-01-06T06:57:31.463Z,6.15
2018-01-06T06:58:31.582Z,6.13
2018-01-06T06:59:31.718Z,6.12
2018-01-06T07:00:30.929Z,6.08
2018-01-06T07:01:31.198Z,6.17
2018-01-06T07:02:31.715Z,6.18
2018-01-06T07:03:30.886Z,6.18
2018-01-06T07:04:30.963Z,6.18
2018-01-06T07:05:31.119Z,6.2
2018-01-06T07:06:31.342Z,6.16
2018-01-06T07:07:31.656Z,6.16
2018-01-06T07:08:31.973Z,6.12
2018-01-06T07:09:31.056Z,6.1
2018-01-06T07:10:31.194Z,6.1
2018-01-06T07:11:31.266Z,6.11
2018-01-06T07:12:31.354Z,6.1
2018-01-06T07:13:30.354Z,6.17
2018-01-06T07:14:30.736Z,6.09
2018-01-06T07:15:31.084Z,6.14
2018-01-06T07:16:31.354Z,6.12
2018-01-06T07:17:30.784Z,6.13
2018-01-06T07:18:30.905Z,6.06
2018-01-06T07:19:31.153Z,6.13
2018-01-06T07:20:31.352Z,6.2
2018-01-06T07:21:30.561Z,6.19
2018-01-06T07:22:30.661Z,6.2
2018-01-06T07:23:30.992Z,6.16
2018-01-06T07:24:31.348Z,6.17
2018-01-06T07:25:30.543Z,6.15
2018-01-06T07:26:30.837Z,6.25
2018-01-06T07:27:31.117Z,6.16
2018-01-06T07:28:30.468Z,6.2
2018-01-06T07:29:30.504Z,6.16
2018-01-06T07:30:30.647Z,6.22
2018-01-06T07:31:30.839Z,6.2
2018-01-06T07:32:31.189Z,6.18
2018-01-06T07:33:30.540Z,6.17
2018-01-06T07:34:30.848Z,6.23
2018-01-06T07:35:31.298Z,6.18
2018-01-06T07:36:30.562Z,6.22
2018-01-06T07:37:30.728Z,6.19
2018-01-06T07:38:30.932Z,6.19
2018-01-06T07:39:30.517Z,6.26
2018-01-06T07:40:30.890Z,6.26
2018-01-06T07:41:31.076Z,6.23
2018-01-06T07:42:31.082Z,6.23
2018-01-06T07:43:31.209Z,6.14
2018-01-06T07:44:31.395Z,6.13
2018-01-06T07:45:31.575Z,6.16
2018-01-06T07:46:31.832Z,6.12
2018-01-06T07:47:32.164Z,6.13
2018-01-06T07:48:32.146Z,6.15
2018-01-06T07:49:31.517Z,6.18
2018-01-06T07:50:31.945Z,6.19
2018-01-06T07:51:31.233Z,6.18
2018-01-06T07:52:31.508Z,6.16
2018-01-06T07:53:32.039Z,6.16
2018-01-06T07:54:31.343Z,6.23
2018-01-06T07:55:31.490Z,6.18
2018-01-06T07:56:31.816Z,6.15
2018-01-06T07:57:32.004Z,6.16
2018-01-06T07:58:32.100Z,6.24
2018-01-06T07:59:31.279Z,6.19
2018-01-06T08:00:31.663Z,6.22
2018-01-06T08:01:31.997Z,6.16
2018-01-06T08:02:31.294Z,6.16
2018-01-06T08:03:31.511Z,6.22
2018-01-06T08:04:31.766Z,6.22
2018-01-06T08:05:31.903Z,6.21
2018-01-06T08:06:32.098Z,6.24
2018-01-06T08:07:32.152Z,6.26
2018-01-06T08:08:31.346Z,6.23
2018-01-06T08:09:31.722Z,6.29
2018-01-06T08:10:32.036Z,6.3
2018-01-06T08:11:31.663Z,6.24
2018-01-06T08:12:31.918Z,6.22
2018-01-06T08:13:32.175Z,6.4
2018-01-06T08:14:31.539Z,6.36
2018-01-06T08:15:32.028Z,6.35
2018-01-06T08:16:31.305Z,6.34
2018-01-06T08:17:31.573Z,6.34
2018-01-06T08:18:31.982Z,6.34
2018-01-06T08:19:31.573Z,6.37
2018-01-06T08:20:31.728Z,6.4
2018-01-06T08:21:32.076Z,6.42
2018-01-06T08:22:31.851Z,6.38
2018-01-06T08:23:31.488Z,6.32
2018-01-06T08:24:31.901Z,6.4
2018-01-06T08:25:31.247Z,6.41
2018-01-06T08:26:31.405Z,6.42
2018-01-06T08:27:31.731Z,6.42
2018-01-06T08:28:32.063Z,6.44
2018-01-06T08:29:31.379Z,6.44
2018-01-06T08:30:31.664Z,6.48
2018-01-06T08:31:32.000Z,6.46
2018-01-06T08:32:32.143Z,6.45
2018-01-06T08:33:31.694Z,6.47
2018-01-06T08:34:32.072Z,6.49
2018-01-06T08:35:31.465Z,6.57
2018-01-06T08:36:31.881Z,6.63
2018-01-06T08:37:31.222Z,6.56
2018-01-06T08:38:31.569Z,6.58
2018-01-06T08:39:31.933Z,6.51
2018-01-06T08:40:31.171Z,6.52
2018-01-06T08:41:31.412Z,6.59
2018-01-06T08:42:31.829Z,6.55
2018-01-06T08:43:31.287Z,6.6
2018-01-06T08:44:31.816Z,6.59
2018-01-06T08:45:30.901Z,6.55
2018-01-06T08:46:31.042Z,6.57
2018-01-06T08:47:31.212Z,6.54
2018-01-06T08:48:31.698Z,6.51
2018-01-06T08:49:31.018Z,6.54
2018-01-06T08:50:31.421Z,6.55
2018-01-06T08:51:30.925Z,6.52
2018-01-06T08:52:31.271Z,6.62
2018-01-06T08:53:31.652Z,6.6
2018-01-06T08:54:31.260Z,6.56
2018-01-06T08:55:31.572Z,6.54
2018-01-06T08:56:30.797Z,6.52
2018-01-06T08:57:31.141Z,6.51
2018-01-06T08:58:31.471Z,6.46
2018-01-06T08:59:31.611Z,6.56
2018-01-06T09:00:31.788Z,6.55
2018-01-06T09:01:30.999Z,6.54
2018-01-06T09:02:31.070Z,6.67
2018-01-06T09:03:31.177Z,6.63
2018-01-06T09:04:31.396Z,6.72
2018-01-06T09:05:31.752Z,6.64
2018-01-06T09:06:31.036Z,6.63
2018-01-06T09:07:31.491Z,6.63
2018-01-06T09:08:31.876Z,6.64
2018-01-06T09:09:31.148Z,6.69
2018-01-06T09:10:31.318Z,6.69
2018-01-06T09:11:31.594Z,6.64
2018-01-06T09:12:31.039Z,6.67
2018-01-06T09:13:31.557Z,6.69
2018-01-06T09:14:31.926Z,6.67
2018-01-06T09:15:31.399Z,6.68
2018-01-06T09:16:30.642Z,6.69
2018-01-06T09:17:30.893Z,6.78
2018-01-06T09:18:31.168Z,6.7
2018-01-06T09:19:30.511Z,6.78
2018-01-06T09:20:31.041Z,6.72
2018-01-06T09:21:31.369Z,6.74
2018-01-06T09:22:30.684Z,6.75
2018-01-06T09:23:30.936Z,6.7
2018-01-06T09:24:31.236Z,6.69
2018-01-06T09:25:30.613Z,6.68
2018-01-06T09:26:31.059Z,6.7
2018-01-06T09:27:31.370Z,6.73
2018-01-06T09:28:30.697Z,6.74
2018-01-06T09:29:31.747Z,6.79
2018-01-06T09:30:31.124Z,6.8
2018-01-06T09:31:32.851Z,6.78
2018-01-06T09:32:33.579Z,6.8
2018-01-06T09:33:33.063Z,6.82
2018-01-06T09:34:30.502Z,6.89
2018-01-06T09:35:33.540Z,6.93
2018-01-06T09:36:31.408Z,6.78
2018-01-06T09:37:31.505Z,6.86
2018-01-06T09:38:30.920Z,6.8
2018-01-06T09:39:31.427Z,6.8
2018-01-06T09:40:30.843Z,6.84
2018-01-06T09:41:31.515Z,6.81
2018-01-06T09:42:30.810Z,6.82
2018-01-06T09:43:31.165Z,6.78
2018-01-06T09:44:30.503Z,6.78
2018-01-06T09:45:30.805Z,6.76
2018-01-06T09:46:31.211Z,6.79
2018-01-06T09:47:31.678Z,6.79
2018-01-06T09:48:32.001Z,6.79
2018-01-06T09:49:32.188Z,6.84
2018-01-06T09:50:31.625Z,6.81
2018-01-06T09:51:31.555Z,6.82
2018-01-06T09:52:32.314Z,6.88
2018-01-06T09:53:31.512Z,6.89
2018-01-06T09:54:31.749Z,6.89
2018-01-06T09:55:31.931Z,6.91
2018-01-06T09:56:32.121Z,6.94
2018-01-06T09:57:31.529Z,6.91
2018-01-06T09:58:31.790Z,6.9
2018-01-06T09:59:32.042Z,6.88
2018-01-06T10:00:32.163Z,6.92
2018-01-06T10:01:31.640Z,6.96
2018-01-06T10:02:31.738Z,7
2018-01-06T10:03:31.910Z,6.94
2018-01-06T10:04:32.157Z,6.89
2018-01-06T10:05:31.392Z,6.95
2018-01-06T10:06:31.507Z,7.07
2018-01-06T10:07:31.697Z,7.07
2018-01-06T10:08:32.037Z,7.04
2018-01-06T10:09:32.063Z,7
2018-01-06T10:10:32.140Z,6.98
2018-01-06T10:11:31.384Z,6.99
2018-01-06T10:12:31.634Z,6.99
2018-01-06T10:13:31.881Z,6.96
2018-01-06T10:14:32.127Z,7.03
2018-01-06T10:15:31.331Z,7.02
2018-01-06T10:16:31.645Z,7.02
2018-01-06T10:17:30.857Z,7.01
2018-01-06T10:18:31.302Z,7.04
2018-01-06T10:19:30.753Z,7.03
2018-01-06T10:20:30.857Z,7.08
2018-01-06T10:21:31.349Z,7.09
2018-01-06T10:22:31.560Z,7.05
2018-01-06T10:23:30.922Z,7.08
2018-01-06T10:24:31.097Z,7.11
2018-01-06T10:25:31.388Z,7.18
2018-01-06T10:26:30.740Z,7.11
2018-01-06T10:27:30.952Z,7.12
2018-01-06T10:28:31.298Z,7.08
2018-01-06T10:29:30.938Z,7.08
2018-01-06T10:30:31.216Z,7.08
2018-01-06T10:31:31.564Z,7.09
2018-01-06T10:32:30.756Z,7.1
2018-01-06T10:33:30.990Z,7.09
2018-01-06T10:34:31.120Z,7.08
2018-01-06T10:35:31.242Z,7.1
2018-01-06T10:36:31.542Z,7.16
2018-01-06T10:37:31.357Z,7.13
2018-01-06T10:38:32.264Z,7.1
2018-01-06T10:39:31.591Z,7.11
2018-01-06T10:40:31.180Z,7.1
2018-01-06T10:41:31.642Z,7.15
2018-01-06T10:42:30.916Z,7.11
2018-01-06T10:43:31.104Z,7.19
2018-01-06T10:44:31.213Z,7.19
2018-01-06T10:45:31.513Z,7.13
2018-01-06T10:46:31.423Z,7.15
2018-01-06T10:47:31.735Z,7.13
2018-01-06T10:48:31.202Z,7.13
2018-01-06T10:49:31.512Z,7.16
2018-01-06T10:50:30.684Z,7.13
2018-01-06T10:51:31.013Z,7.13
2018-01-06T10:52:31.307Z,7.13
2018-01-06T10:53:31.542Z,7.2
2018-01-06T10:54:30.691Z,7.21
2018-01-06T10:55:31.018Z,7.2
2018-01-06T10:56:31.306Z,7.32
2018-01-06T10:57:31.411Z,7.26
2018-01-06T10:58:31.540Z,7.24
2018-01-06T10:59:30.790Z,7.22
2018-01-06T11:00:30.923Z,7.2
2018-01-06T11:01:31.234Z,7.26
2018-01-06T11:02:31.667Z,7.27
2018-01-06T11:03:30.808Z,7.33
2018-01-06T11:04:30.941Z,7.39
2018-01-06T11:05:31.075Z,7.34
2018-01-06T11:06:31.118Z,7.31
2018-01-06T11:07:31.086Z,7.27
2018-01-06T11:08:31.012Z,7.32
2018-01-06T11:09:31.099Z,7.37
2018-01-06T11:10:31.321Z,7.36
2018-01-06T11:11:31.625Z,7.34
2018-01-06T11:12:31.175Z,7.31
2018-01-06T11:13:31.390Z,7.32
2018-01-06T11:14:30.724Z,7.28
2018-01-06T11:15:30.975Z,7.3
2018-01-06T11:16:31.404Z,7.32
2018-01-06T11:17:30.619Z,7.3
2018-01-06T11:18:30.798Z,7.33
2018-01-06T11:19:31.054Z,7.33
2018-01-06T11:20:31.230Z,7.29
2018-01-06T11:21:31.377Z,7.28
2018-01-06T11:22:31.736Z,7.28
2018-01-06T11:23:31.180Z,7.34
2018-01-06T11:24:31.522Z,7.27
2018-01-06T11:25:30.906Z,7.25
2018-01-06T11:26:31.183Z,7.23
2018-01-06T11:27:31.315Z,7.25
2018-01-06T11:28:31.626Z,7.24
2018-01-06T11:29:30.861Z,7.33
2018-01-06T11:30:30.914Z,7.31
2018-01-06T11:31:30.892Z,7.31
2018-01-06T11:32:30.916Z,7.32
2018-01-06T11:33:31.266Z,7.33
2018-01-06T11:34:31.648Z,7.31
2018-01-06T11:35:30.925Z,7.3
2018-01-06T11:36:31.198Z,7.35
2018-01-06T11:37:31.378Z,7.34
2018-01-06T11:38:31.883Z,7.3
2018-01-06T11:39:31.348Z,7.35
2018-01-06T11:40:34.783Z,7.33
2018-01-06T11:41:31.520Z,7.38
2018-01-06T11:42:34.411Z,7.34
2018-01-06T11:43:31.071Z,7.39
2018-01-06T11:44:31.426Z,7.44
2018-01-06T11:45:30.892Z,7.4
2018-01-06T11:46:31.526Z,7.35
2018-01-06T11:47:30.884Z,7.42
2018-01-06T11:48:31.240Z,7.47
2018-01-06T11:49:31.527Z,7.48
2018-01-06T11:50:31.782Z,7.52
2018-01-06T11:51:31.184Z,7.51
2018-01-06T11:52:31.584Z,7.52
2018-01-06T11:53:32.067Z,7.52
2018-01-06T11:54:31.431Z,7.48
2018-01-06T11:55:31.734Z,7.52
2018-01-06T11:56:31.307Z,7.5
2018-01-06T11:57:31.736Z,7.51
2018-01-06T11:58:31.868Z,7.5
2018-01-06T11:59:31.907Z,7.49
2018-01-06T12:00:32.035Z,7.52
2018-01-06T12:01:31.220Z,7.53
2018-01-06T12:02:31.284Z,7.5
2018-01-06T12:03:31.615Z,7.5
2018-01-06T12:04:31.804Z,7.47
2018-01-06T12:05:31.932Z,7.46
2018-01-06T12:06:31.400Z,7.52
2018-01-06T12:07:31.520Z,7.54
2018-01-06T12:08:31.675Z,7.48
2018-01-06T12:09:31.891Z,7.45
2018-01-06T12:10:31.148Z,7.42
2018-01-06T12:11:31.278Z,7.45
2018-01-06T12:12:31.386Z,7.43
2018-01-06T12:13:31.681Z,7.43
2018-01-06T12:14:32.070Z,7.43
2018-01-06T12:15:31.384Z,7.5
2018-01-06T12:16:31.615Z,7.49
2018-01-06T12:17:31.960Z,7.4
2018-01-06T12:18:31.356Z,7.4
2018-01-06T12:19:32.137Z,7.43
2018-01-06T12:20:31.591Z,7.42
2018-01-06T12:21:34.038Z,7.43
2018-01-06T12:22:31.693Z,7.48
2018-01-06T12:23:31.856Z,7.47
2018-01-06T12:24:31.338Z,7.47
2018-01-06T12:25:31.516Z,7.45
2018-01-06T12:26:31.945Z,7.4
2018-01-06T12:27:32.314Z,7.43
2018-01-06T12:28:31.764Z,7.39
2018-01-06T12:29:32.129Z,7.4
2018-01-06T12:30:32.016Z,7.43
2018-01-06T12:31:31.304Z,7.45
2018-01-06T12:32:32.126Z,7.38
2018-01-06T12:33:32.011Z,7.37
2018-01-06T12:34:32.826Z,7.38
2018-01-06T12:35:32.766Z,7.42
2018-01-06T12:36:31.747Z,7.43
2018-01-06T12:37:31.592Z,7.5
2018-01-06T12:38:32.528Z,7.47
2018-01-06T12:39:32.752Z,7.44
2018-01-06T12:40:32.019Z,7.47
2018-01-06T12:41:32.998Z,7.49
2018-01-06T12:42:31.955Z,7.48
2018-01-06T12:43:31.947Z,7.44
2018-01-06T12:44:32.312Z,7.42
2018-01-06T12:45:32.618Z,7.4
2018-01-06T12:46:32.369Z,7.39
2018-01-06T12:47:32.748Z,7.45
2018-01-06T12:48:31.597Z,7.43
2018-01-06T12:49:31.478Z,7.46
2018-01-06T12:50:31.883Z,7.47
2018-01-06T12:51:30.834Z,7.47
2018-01-06T12:52:31.521Z,7.42
2018-01-06T12:53:31.327Z,7.45
2018-01-06T12:54:31.023Z,7.45
2018-01-06T12:55:31.317Z,7.49
2018-01-06T12:56:31.330Z,7.41
2018-01-06T12:57:31.145Z,7.48
2018-01-06T12:58:31.263Z,7.46
2018-01-06T12:59:31.329Z,7.51
2018-01-06T13:00:30.988Z,7.48
2018-01-06T13:01:31.149Z,7.52
2018-01-06T13:02:31.340Z,7.51
2018-01-06T13:03:31.445Z,7.5
2018-01-06T13:04:32.085Z,7.44
2018-01-06T13:05:31.099Z,7.53
2018-01-06T13:06:31.148Z,7.55
2018-01-06T13:07:30.858Z,7.55
2018-01-06T13:08:31.247Z,7.57
2018-01-06T13:09:31.321Z,7.61
2018-01-06T13:10:31.328Z,7.57
2018-01-06T13:11:31.484Z,7.51
2018-01-06T13:12:32.018Z,7.52
2018-01-06T13:13:31.262Z,7.57
2018-01-06T13:14:31.571Z,7.52
2018-01-06T13:15:31.467Z,7.57
2018-01-06T13:16:31.183Z,7.58
2018-01-06T13:17:30.981Z,7.53
2018-01-06T13:18:30.960Z,7.58
2018-01-06T13:19:31.437Z,7.55
2018-01-06T13:20:32.292Z,7.57
2018-01-06T13:21:31.949Z,7.56
2018-01-06T13:22:31.983Z,7.61
2018-01-06T13:23:32.255Z,7.61
2018-01-06T13:24:31.476Z,7.53